sensor_id;sensor_type;location;lat;lon;timestamp;pressure;altitude;pressure_sealevel;temperature;humidity
74905;BME280;63465;50.862;6.220;2023-08-20T00:01:25;100421.97;;;19.95;100.00
74905;BME280;63465;50.862;6.220;2023-08-20T00:03:51;100427.28;;;19.60;100.00
74905;BME280;63465;50.862;6.220;2023-08-20T00:06:18;100425.13;;;19.41;100.00
74905;BME280;63465;50.862;6.220;2023-08-20T00:08:43;100429.06;;;19.48;100.00
74905;BME280;63465;50.862;6.220;2023-08-20T00:11:09;100436.97;;;19.38;100.00
74905;BME280;63465;50.862;6.220;2023-08-20T00:13:35;100436.50;;;19.20;100.00
74905;BME280;63465;50.862;6.220;2023-08-20T00:16:00;100437.53;;;19.31;100.00
74905;BME280;63465;50.862;6.220;2023-08-20T00:18:26;100449.34;;;19.41;100.00
74905;BME280;63465;50.862;6.220;2023-08-20T00:20:52;100456.16;;;19.58;100.00
74905;BME280;63465;50.862;6.220;2023-08-20T00:23:18;100456.28;;;19.56;100.00
74905;BME280;63465;50.862;6.220;2023-08-20T00:25:44;100449.91;;;19.33;100.00
74905;BME280;63465;50.862;6.220;2023-08-20T00:28:09;100457.72;;;19.12;100.00
74905;BME280;63465;50.862;6.220;2023-08-20T00:30:35;100465.66;;;19.27;100.00
74905;BME280;63465;50.862;6.220;2023-08-20T00:33:00;100450.81;;;19.21;100.00
74905;BME280;63465;50.862;6.220;2023-08-20T00:35:25;100457.38;;;19.17;100.00
74905;BME280;63465;50.862;6.220;2023-08-20T00:37:51;100449.75;;;19.23;100.00
74905;BME280;63465;50.862;6.220;2023-08-20T00:40:17;100456.03;;;19.11;100.00
74905;BME280;63465;50.862;6.220;2023-08-20T00:42:42;100447.00;;;18.99;100.00
74905;BME280;63465;50.862;6.220;2023-08-20T00:45:08;100443.22;;;19.02;100.00
74905;BME280;63465;50.862;6.220;2023-08-20T00:47:34;100441.91;;;19.07;100.00
74905;BME280;63465;50.862;6.220;2023-08-20T00:50:00;100441.41;;;19.02;100.00
74905;BME280;63465;50.862;6.220;2023-08-20T00:52:26;100446.56;;;19.05;100.00
74905;BME280;63465;50.862;6.220;2023-08-20T00:54:52;100434.69;;;19.08;100.00
74905;BME280;63465;50.862;6.220;2023-08-20T00:57:18;100441.63;;;18.99;100.00
74905;BME280;63465;50.862;6.220;2023-08-20T00:59:48;100430.81;;;19.12;100.00
74905;BME280;63465;50.862;6.220;2023-08-20T01:02:15;100436.75;;;19.04;100.00
74905;BME280;63465;50.862;6.220;2023-08-20T01:04:41;100434.91;;;19.05;100.00
74905;BME280;63465;50.862;6.220;2023-08-20T01:10:09;100438.16;;;18.97;100.00
74905;BME280;63465;50.862;6.220;2023-08-20T01:12:38;100440.84;;;18.97;100.00
74905;BME280;63465;50.862;6.220;2023-08-20T01:15:04;100436.31;;;19.11;100.00
74905;BME280;63465;50.862;6.220;2023-08-20T01:17:29;100433.56;;;18.99;100.00
74905;BME280;63465;50.862;6.220;2023-08-20T01:19:54;100416.63;;;19.10;100.00
74905;BME280;63465;50.862;6.220;2023-08-20T01:29:54;100443.44;;;18.99;100.00
74905;BME280;63465;50.862;6.220;2023-08-20T01:32:22;100441.41;;;18.89;100.00
74905;BME280;63465;50.862;6.220;2023-08-20T01:34:48;100442.06;;;18.93;100.00
74905;BME280;63465;50.862;6.220;2023-08-20T01:37:13;100443.53;;;18.97;100.00
74905;BME280;63465;50.862;6.220;2023-08-20T01:39:39;100441.50;;;19.01;100.00
74905;BME280;63465;50.862;6.220;2023-08-20T01:42:05;100438.38;;;19.07;100.00
74905;BME280;63465;50.862;6.220;2023-08-20T01:44:30;100445.72;;;18.92;100.00
74905;BME280;63465;50.862;6.220;2023-08-20T01:46:56;100448.63;;;18.89;100.00
74905;BME280;63465;50.862;6.220;2023-08-20T01:49:21;100454.75;;;19.04;100.00
74905;BME280;63465;50.862;6.220;2023-08-20T01:51:46;100453.31;;;19.11;100.00
74905;BME280;63465;50.862;6.220;2023-08-20T01:54:12;100456.25;;;18.95;100.00
74905;BME280;63465;50.862;6.220;2023-08-20T01:56:37;100450.03;;;18.95;100.00
74905;BME280;63465;50.862;6.220;2023-08-20T01:59:02;100454.00;;;18.89;100.00
74905;BME280;63465;50.862;6.220;2023-08-20T02:01:27;100455.63;;;18.92;100.00
74905;BME280;63465;50.862;6.220;2023-08-20T02:03:53;100454.34;;;19.21;100.00
74905;BME280;63465;50.862;6.220;2023-08-20T02:06:18;100461.69;;;19.19;100.00
74905;BME280;63465;50.862;6.220;2023-08-20T02:08:44;100468.25;;;19.28;100.00
74905;BME280;63465;50.862;6.220;2023-08-20T02:11:09;100472.94;;;19.61;100.00
74905;BME280;63465;50.862;6.220;2023-08-20T02:13:34;100477.53;;;19.48;100.00
74905;BME280;63465;50.862;6.220;2023-08-20T02:16:03;100490.31;;;19.57;100.00
74905;BME280;63465;50.862;6.220;2023-08-20T02:18:30;100484.63;;;19.73;100.00
74905;BME280;63465;50.862;6.220;2023-08-20T02:20:56;100487.00;;;19.78;100.00
74905;BME280;63465;50.862;6.220;2023-08-20T02:23:21;100484.97;;;19.69;100.00
74905;BME280;63465;50.862;6.220;2023-08-20T02:25:47;100494.91;;;19.55;100.00
74905;BME280;63465;50.862;6.220;2023-08-20T02:28:13;100491.03;;;19.59;100.00
74905;BME280;63465;50.862;6.220;2023-08-20T02:30:43;100493.03;;;19.69;100.00
74905;BME280;63465;50.862;6.220;2023-08-20T02:33:08;100488.84;;;19.77;100.00
74905;BME280;63465;50.862;6.220;2023-08-20T02:35:35;100489.16;;;19.73;100.00
74905;BME280;63465;50.862;6.220;2023-08-20T02:38:00;100492.56;;;19.88;100.00
74905;BME280;63465;50.862;6.220;2023-08-20T02:40:25;100492.97;;;19.94;100.00
74905;BME280;63465;50.862;6.220;2023-08-20T02:42:51;100484.91;;;20.06;100.00
74905;BME280;63465;50.862;6.220;2023-08-20T02:45:16;100482.16;;;19.83;100.00
74905;BME280;63465;50.862;6.220;2023-08-20T02:47:41;100486.38;;;19.99;100.00
74905;BME280;63465;50.862;6.220;2023-08-20T02:50:07;100480.69;;;19.90;100.00
74905;BME280;63465;50.862;6.220;2023-08-20T02:52:32;100486.97;;;19.91;100.00
74905;BME280;63465;50.862;6.220;2023-08-20T02:54:58;100482.44;;;20.03;100.00
74905;BME280;63465;50.862;6.220;2023-08-20T02:57:23;100486.38;;;19.99;100.00
74905;BME280;63465;50.862;6.220;2023-08-20T02:59:48;100495.53;;;19.96;100.00
74905;BME280;63465;50.862;6.220;2023-08-20T03:02:13;100498.81;;;19.88;100.00
74905;BME280;63465;50.862;6.220;2023-08-20T03:04:39;100505.38;;;19.84;100.00
74905;BME280;63465;50.862;6.220;2023-08-20T03:07:04;100503.47;;;19.86;100.00
74905;BME280;63465;50.862;6.220;2023-08-20T03:09:29;100501.53;;;20.00;100.00
74905;BME280;63465;50.862;6.220;2023-08-20T03:11:55;100505.09;;;19.76;100.00
74905;BME280;63465;50.862;6.220;2023-08-20T03:14:20;100507.63;;;19.90;100.00
74905;BME280;63465;50.862;6.220;2023-08-20T03:16:45;100506.00;;;20.12;100.00
74905;BME280;63465;50.862;6.220;2023-08-20T03:19:11;100503.94;;;19.80;100.00
74905;BME280;63465;50.862;6.220;2023-08-20T03:21:36;100517.69;;;19.51;100.00
74905;BME280;63465;50.862;6.220;2023-08-20T03:24:01;100515.09;;;19.74;100.00
74905;BME280;63465;50.862;6.220;2023-08-20T03:26:27;100511.78;;;19.83;100.00
74905;BME280;63465;50.862;6.220;2023-08-20T03:28:52;100514.13;;;19.75;100.00
74905;BME280;63465;50.862;6.220;2023-08-20T03:31:18;100512.31;;;19.75;100.00
74905;BME280;63465;50.862;6.220;2023-08-20T03:33:43;100522.25;;;19.99;100.00
74905;BME280;63465;50.862;6.220;2023-08-20T03:36:08;100519.66;;;19.98;100.00
74905;BME280;63465;50.862;6.220;2023-08-20T03:38:34;100516.94;;;19.86;100.00
74905;BME280;63465;50.862;6.220;2023-08-20T03:40:59;100510.28;;;19.79;100.00
74905;BME280;63465;50.862;6.220;2023-08-20T03:43:24;100519.56;;;19.62;100.00
74905;BME280;63465;50.862;6.220;2023-08-20T03:45:51;100518.34;;;19.79;100.00
74905;BME280;63465;50.862;6.220;2023-08-20T03:48:16;100523.47;;;19.58;100.00
74905;BME280;63465;50.862;6.220;2023-08-20T03:50:42;100517.63;;;19.77;100.00
74905;BME280;63465;50.862;6.220;2023-08-20T03:53:07;100526.75;;;19.37;100.00
74905;BME280;63465;50.862;6.220;2023-08-20T03:55:32;100517.97;;;19.22;100.00
74905;BME280;63465;50.862;6.220;2023-08-20T03:57:58;100525.41;;;19.06;100.00
74905;BME280;63465;50.862;6.220;2023-08-20T04:00:23;100524.66;;;18.91;100.00
74905;BME280;63465;50.862;6.220;2023-08-20T04:02:48;100535.19;;;18.81;100.00
74905;BME280;63465;50.862;6.220;2023-08-20T04:05:13;100533.72;;;18.90;100.00
74905;BME280;63465;50.862;6.220;2023-08-20T04:07:39;100526.25;;;18.68;100.00
74905;BME280;63465;50.862;6.220;2023-08-20T04:10:04;100533.94;;;18.87;100.00
74905;BME280;63465;50.862;6.220;2023-08-20T04:12:30;100539.94;;;18.78;100.00
74905;BME280;63465;50.862;6.220;2023-08-20T04:14:55;100536.75;;;18.85;100.00
74905;BME280;63465;50.862;6.220;2023-08-20T04:17:21;100535.88;;;18.98;100.00
74905;BME280;63465;50.862;6.220;2023-08-20T04:19:46;100540.16;;;18.75;100.00
74905;BME280;63465;50.862;6.220;2023-08-20T04:22:11;100544.69;;;18.87;100.00
74905;BME280;63465;50.862;6.220;2023-08-20T04:24:36;100550.50;;;18.94;100.00
74905;BME280;63465;50.862;6.220;2023-08-20T04:27:02;100536.28;;;19.17;100.00
74905;BME280;63465;50.862;6.220;2023-08-20T04:29:27;100541.88;;;19.14;100.00
74905;BME280;63465;50.862;6.220;2023-08-20T04:31:53;100551.88;;;19.12;100.00
74905;BME280;63465;50.862;6.220;2023-08-20T04:34:18;100551.34;;;19.07;100.00
74905;BME280;63465;50.862;6.220;2023-08-20T04:36:43;100541.88;;;19.14;100.00
74905;BME280;63465;50.862;6.220;2023-08-20T04:39:09;100542.22;;;19.10;100.00
74905;BME280;63465;50.862;6.220;2023-08-20T04:41:35;100547.16;;;19.03;100.00
74905;BME280;63465;50.862;6.220;2023-08-20T04:44:00;100557.16;;;19.01;100.00
74905;BME280;63465;50.862;6.220;2023-08-20T04:46:25;100551.00;;;18.99;100.00
74905;BME280;63465;50.862;6.220;2023-08-20T04:48:50;100553.72;;;18.99;100.00
74905;BME280;63465;50.862;6.220;2023-08-20T04:51:16;100557.16;;;19.01;100.00
74905;BME280;63465;50.862;6.220;2023-08-20T04:53:41;100560.16;;;19.09;100.00
74905;BME280;63465;50.862;6.220;2023-08-20T04:56:06;100563.81;;;19.08;100.00
74905;BME280;63465;50.862;6.220;2023-08-20T04:58:32;100554.56;;;19.12;100.00
74905;BME280;63465;50.862;6.220;2023-08-20T05:00:57;100559.94;;;19.12;100.00
74905;BME280;63465;50.862;6.220;2023-08-20T05:03:22;100555.22;;;19.03;100.00
74905;BME280;63465;50.862;6.220;2023-08-20T05:05:49;100551.78;;;19.01;100.00
74905;BME280;63465;50.862;6.220;2023-08-20T05:08:15;100557.59;;;19.07;100.00
74905;BME280;63465;50.862;6.220;2023-08-20T05:10:40;100567.03;;;19.00;100.00
74905;BME280;63465;50.862;6.220;2023-08-20T05:13:06;100566.84;;;18.91;100.00
74905;BME280;63465;50.862;6.220;2023-08-20T05:15:31;100565.50;;;18.83;100.00
74905;BME280;63465;50.862;6.220;2023-08-20T05:17:56;100558.44;;;19.08;100.00
74905;BME280;63465;50.862;6.220;2023-08-20T05:20:22;100559.31;;;19.09;100.00
74905;BME280;63465;50.862;6.220;2023-08-20T05:22:47;100557.66;;;19.32;100.00
74905;BME280;63465;50.862;6.220;2023-08-20T05:25:12;100562.91;;;19.46;100.00
74905;BME280;63465;50.862;6.220;2023-08-20T05:27:38;100558.72;;;19.29;100.00
74905;BME280;63465;50.862;6.220;2023-08-20T05:30:03;100557.72;;;19.43;100.00
74905;BME280;63465;50.862;6.220;2023-08-20T05:32:29;100571.75;;;19.35;100.00
74905;BME280;63465;50.862;6.220;2023-08-20T05:34:54;100567.22;;;19.49;100.00
74905;BME280;63465;50.862;6.220;2023-08-20T05:37:19;100575.69;;;19.55;100.00
74905;BME280;63465;50.862;6.220;2023-08-20T05:39:44;100580.94;;;19.70;100.00
74905;BME280;63465;50.862;6.220;2023-08-20T05:42:10;100578.38;;;19.68;100.00
74905;BME280;63465;50.862;6.220;2023-08-20T05:44:36;100576.28;;;19.72;100.00
74905;BME280;63465;50.862;6.220;2023-08-20T05:47:01;100579.56;;;19.77;100.00
74905;BME280;63465;50.862;6.220;2023-08-20T05:49:27;100583.97;;;19.65;100.00
74905;BME280;63465;50.862;6.220;2023-08-20T05:51:52;100586.13;;;19.60;100.00
74905;BME280;63465;50.862;6.220;2023-08-20T05:54:17;100587.28;;;19.69;100.00
74905;BME280;63465;50.862;6.220;2023-08-20T05:56:43;100578.56;;;19.78;100.00
74905;BME280;63465;50.862;6.220;2023-08-20T05:59:08;100579.22;;;19.82;100.00
74905;BME280;63465;50.862;6.220;2023-08-20T06:01:33;100583.28;;;19.87;100.00
74905;BME280;63465;50.862;6.220;2023-08-20T06:03:59;100589.72;;;19.98;100.00
74905;BME280;63465;50.862;6.220;2023-08-20T06:06:26;100580.88;;;19.95;100.00
74905;BME280;63465;50.862;6.220;2023-08-20T06:08:51;100572.47;;;20.00;100.00
74905;BME280;63465;50.862;6.220;2023-08-20T06:11:16;100580.47;;;19.89;100.00
74905;BME280;63465;50.862;6.220;2023-08-20T06:13:42;100578.94;;;19.98;100.00
74905;BME280;63465;50.862;6.220;2023-08-20T06:16:07;100573.03;;;19.92;100.00
74905;BME280;63465;50.862;6.220;2023-08-20T06:18:33;100582.94;;;19.92;100.00
74905;BME280;63465;50.862;6.220;2023-08-20T06:20:58;100572.16;;;19.92;100.00
74905;BME280;63465;50.862;6.220;2023-08-20T06:23:23;100583.66;;;20.18;100.00
74905;BME280;63465;50.862;6.220;2023-08-20T06:25:50;100585.91;;;20.24;100.00
74905;BME280;63465;50.862;6.220;2023-08-20T06:28:15;100584.66;;;20.17;100.00
74905;BME280;63465;50.862;6.220;2023-08-20T06:30:41;100577.59;;;20.27;100.00
74905;BME280;63465;50.862;6.220;2023-08-20T06:33:06;100585.50;;;20.42;100.00
74905;BME280;63465;50.862;6.220;2023-08-20T06:35:31;100576.22;;;20.57;100.00
74905;BME280;63465;50.862;6.220;2023-08-20T06:37:57;100574.59;;;20.43;100.00
74905;BME280;63465;50.862;6.220;2023-08-20T06:40:22;100567.94;;;20.72;100.00
74905;BME280;63465;50.862;6.220;2023-08-20T06:42:47;100581.97;;;20.77;100.00
74905;BME280;63465;50.862;6.220;2023-08-20T06:45:13;100582.31;;;20.83;100.00
74905;BME280;63465;50.862;6.220;2023-08-20T06:47:38;100584.66;;;20.88;100.00
74905;BME280;63465;50.862;6.220;2023-08-20T06:50:04;100579.63;;;20.95;100.00
74905;BME280;63465;50.862;6.220;2023-08-20T06:52:30;100569.31;;;20.89;100.00
74905;BME280;63465;50.862;6.220;2023-08-20T06:54:55;100565.53;;;20.91;100.00
74905;BME280;63465;50.862;6.220;2023-08-20T06:57:20;100569.47;;;20.98;100.00
74905;BME280;63465;50.862;6.220;2023-08-20T06:59:46;100569.00;;;21.16;100.00
74905;BME280;63465;50.862;6.220;2023-08-20T07:02:11;100569.47;;;20.98;100.00
74905;BME280;63465;50.862;6.220;2023-08-20T07:04:37;100564.09;;;21.21;100.00
74905;BME280;63465;50.862;6.220;2023-08-20T07:07:02;100558.31;;;21.37;100.00
74905;BME280;63465;50.862;6.220;2023-08-20T07:09:30;100561.50;;;21.31;100.00
74905;BME280;63465;50.862;6.220;2023-08-20T07:11:55;100561.88;;;21.37;100.00
74905;BME280;63465;50.862;6.220;2023-08-20T07:14:20;100556.59;;;21.36;100.00
74905;BME280;63465;50.862;6.220;2023-08-20T07:16:46;100561.88;;;21.26;100.00
74905;BME280;63465;50.862;6.220;2023-08-20T07:19:11;100561.13;;;21.47;100.00
74905;BME280;63465;50.862;6.220;2023-08-20T07:21:36;100557.69;;;21.56;100.00
74905;BME280;63465;50.862;6.220;2023-08-20T07:24:02;100545.41;;;21.75;100.00
74905;BME280;63465;50.862;6.220;2023-08-20T07:26:27;100557.97;;;21.97;100.00
74905;BME280;63465;50.862;6.220;2023-08-20T07:28:52;100557.44;;;21.59;100.00
74905;BME280;63465;50.862;6.220;2023-08-20T07:31:26;100562.09;;;21.68;100.00
74905;BME280;63465;50.862;6.220;2023-08-20T07:33:52;100560.34;;;21.90;100.00
74905;BME280;63465;50.862;6.220;2023-08-20T07:36:19;100560.44;;;22.00;100.00
74905;BME280;63465;50.862;6.220;2023-08-20T07:38:47;100561.25;;;22.12;100.00
74905;BME280;63465;50.862;6.220;2023-08-20T07:41:12;100559.41;;;22.44;100.00
74905;BME280;63465;50.862;6.220;2023-08-20T07:43:38;100555.84;;;22.44;100.00
74905;BME280;63465;50.862;6.220;2023-08-20T07:46:04;100557.72;;;22.43;100.00
74905;BME280;63465;50.862;6.220;2023-08-20T07:48:30;100556.19;;;22.72;100.00
74905;BME280;63465;50.862;6.220;2023-08-20T07:50:55;100556.69;;;22.87;100.00
74905;BME280;63465;50.862;6.220;2023-08-20T07:53:20;100556.97;;;22.84;100.00
74905;BME280;63465;50.862;6.220;2023-08-20T07:55:46;100553.72;;;22.69;100.00
74905;BME280;63465;50.862;6.220;2023-08-20T07:58:11;100556.88;;;22.74;100.00
74905;BME280;63465;50.862;6.220;2023-08-20T08:00:36;100557.56;;;22.66;100.00
74905;BME280;63465;50.862;6.220;2023-08-20T08:03:01;100561.72;;;22.49;100.00
74905;BME280;63465;50.862;6.220;2023-08-20T08:05:28;100555.00;;;23.17;100.00
74905;BME280;63465;50.862;6.220;2023-08-20T08:09:31;100560.78;;;23.33;100.00
74905;BME280;63465;50.862;6.220;2023-08-20T08:11:57;100561.16;;;23.59;100.00
74905;BME280;63465;50.862;6.220;2023-08-20T08:14:23;100559.41;;;24.48;100.00
74905;BME280;63465;50.862;6.220;2023-08-20T08:16:48;100557.06;;;24.82;100.00
74905;BME280;63465;50.862;6.220;2023-08-20T08:19:14;100548.41;;;24.69;100.00
74905;BME280;63465;50.862;6.220;2023-08-20T08:21:41;100547.25;;;25.46;100.00
74905;BME280;63465;50.862;6.220;2023-08-20T08:24:06;100548.19;;;25.83;100.00
74905;BME280;63465;50.862;6.220;2023-08-20T08:26:33;100551.19;;;24.97;100.00
74905;BME280;63465;50.862;6.220;2023-08-20T08:28:59;100561.47;;;25.86;100.00
74905;BME280;63465;50.862;6.220;2023-08-20T08:31:25;100560.56;;;25.12;100.00
74905;BME280;63465;50.862;6.220;2023-08-20T08:33:50;100558.00;;;25.76;100.00
74905;BME280;63465;50.862;6.220;2023-08-20T08:36:15;100570.78;;;26.11;100.00
74905;BME280;63465;50.862;6.220;2023-08-20T08:38:42;100562.50;;;26.57;100.00
74905;BME280;63465;50.862;6.220;2023-08-20T08:41:11;100558.09;;;26.38;100.00
74905;BME280;63465;50.862;6.220;2023-08-20T08:43:37;100551.06;;;26.98;100.00
74905;BME280;63465;50.862;6.220;2023-08-20T08:46:06;100556.41;;;26.37;100.00
74905;BME280;63465;50.862;6.220;2023-08-20T08:48:34;100562.41;;;26.85;100.00
74905;BME280;63465;50.862;6.220;2023-08-20T08:51:00;100573.31;;;26.49;100.00
74905;BME280;63465;50.862;6.220;2023-08-20T08:53:26;100563.19;;;25.87;100.00
74905;BME280;63465;50.862;6.220;2023-08-20T08:55:51;100571.88;;;26.63;100.00
74905;BME280;63465;50.862;6.220;2023-08-20T08:58:17;100570.03;;;27.08;100.00
74905;BME280;63465;50.862;6.220;2023-08-20T09:00:42;100565.25;;;27.10;100.00
74905;BME280;63465;50.862;6.220;2023-08-20T09:03:07;100566.41;;;26.73;100.00
74905;BME280;63465;50.862;6.220;2023-08-20T09:05:54;100566.72;;;26.96;100.00
74905;BME280;63465;50.862;6.220;2023-08-20T09:08:26;100567.00;;;27.45;100.00
74905;BME280;63465;50.862;6.220;2023-08-20T09:10:54;100560.34;;;27.13;100.00
74905;BME280;63465;50.862;6.220;2023-08-20T09:13:32;100571.22;;;27.13;100.00
74905;BME280;63465;50.862;6.220;2023-08-20T09:15:58;100566.41;;;26.55;100.00
74905;BME280;63465;50.862;6.220;2023-08-20T09:18:23;100566.22;;;27.00;100.00
74905;BME280;63465;50.862;6.220;2023-08-20T09:20:49;100569.69;;;27.11;100.00
74905;BME280;63465;50.862;6.220;2023-08-20T09:23:14;100571.66;;;27.27;100.00
74905;BME280;63465;50.862;6.220;2023-08-20T09:25:41;100568.91;;;27.18;100.00
74905;BME280;63465;50.862;6.220;2023-08-20T09:28:07;100569.25;;;27.58;100.00
74905;BME280;63465;50.862;6.220;2023-08-20T09:30:32;100569.59;;;26.94;100.00
74905;BME280;63465;50.862;6.220;2023-08-20T09:33:11;100568.66;;;27.12;100.00
74905;BME280;63465;50.862;6.220;2023-08-20T09:35:36;100570.03;;;27.34;100.00
74905;BME280;63465;50.862;6.220;2023-08-20T09:38:05;100566.72;;;25.97;100.00
74905;BME280;63465;50.862;6.220;2023-08-20T09:40:31;100568.97;;;26.74;100.00
74905;BME280;63465;50.862;6.220;2023-08-20T09:42:57;100563.28;;;27.63;100.00
74905;BME280;63465;50.862;6.220;2023-08-20T09:45:24;100567.44;;;27.75;100.00
74905;BME280;63465;50.862;6.220;2023-08-20T09:47:54;100572.13;;;28.90;100.00
74905;BME280;63465;50.862;6.220;2023-08-20T09:50:21;100569.75;;;28.13;100.00
74905;BME280;63465;50.862;6.220;2023-08-20T09:53:11;100577.78;;;27.29;100.00
74905;BME280;63465;50.862;6.220;2023-08-20T09:55:39;100576.41;;;26.98;100.00
74905;BME280;63465;50.862;6.220;2023-08-20T09:58:06;100568.66;;;27.12;100.00
74905;BME280;63465;50.862;6.220;2023-08-20T10:00:32;100571.06;;;27.15;100.00
74905;BME280;63465;50.862;6.220;2023-08-20T10:02:58;100562.56;;;27.95;100.00
74905;BME280;63465;50.862;6.220;2023-08-20T10:05:24;100562.06;;;29.07;100.00
74905;BME280;63465;50.862;6.220;2023-08-20T10:07:50;100563.53;;;29.97;100.00
74905;BME280;63465;50.862;6.220;2023-08-20T10:10:16;100572.16;;;28.57;100.00
74905;BME280;63465;50.862;6.220;2023-08-20T10:12:42;100566.19;;;28.70;100.00
74905;BME280;63465;50.862;6.220;2023-08-20T10:15:09;100564.28;;;28.95;100.00
74905;BME280;63465;50.862;6.220;2023-08-20T10:17:37;100563.22;;;29.60;100.00
74905;BME280;63465;50.862;6.220;2023-08-20T10:20:03;100568.53;;;30.16;99.09
74905;BME280;63465;50.862;6.220;2023-08-20T10:22:37;100559.47;;;30.39;98.44
74905;BME280;63465;50.862;6.220;2023-08-20T10:25:09;100560.50;;;29.04;100.00
74905;BME280;63465;50.862;6.220;2023-08-20T10:27:37;100568.31;;;29.32;100.00
74905;BME280;63465;50.862;6.220;2023-08-20T10:30:11;100562.47;;;29.75;100.00
74905;BME280;63465;50.862;6.220;2023-08-20T10:32:50;100571.47;;;30.38;99.57
74905;BME280;63465;50.862;6.220;2023-08-20T10:35:28;100563.44;;;29.50;100.00
74905;BME280;63465;50.862;6.220;2023-08-20T10:38:04;100564.66;;;28.34;100.00
74905;BME280;63465;50.862;6.220;2023-08-20T10:40:49;100563.28;;;28.46;100.00
74905;BME280;63465;50.862;6.220;2023-08-20T10:46:05;100565.94;;;27.12;100.00
74905;BME280;63465;50.862;6.220;2023-08-20T10:48:36;100570.66;;;26.75;100.00
74905;BME280;63465;50.862;6.220;2023-08-20T10:51:17;100571.19;;;26.79;100.00
74905;BME280;63465;50.862;6.220;2023-08-20T10:54:02;100574.25;;;26.76;100.00
74905;BME280;63465;50.862;6.220;2023-08-20T10:56:47;100569.84;;;26.39;100.00
74905;BME280;63465;50.862;6.220;2023-08-20T10:59:25;100573.44;;;26.83;100.00
74905;BME280;63465;50.862;6.220;2023-08-20T11:01:55;100566.31;;;28.93;100.00
74905;BME280;63465;50.862;6.220;2023-08-20T11:04:22;100573.03;;;28.49;100.00
74905;BME280;63465;50.862;6.220;2023-08-20T11:06:57;100567.81;;;29.28;100.00
74905;BME280;63465;50.862;6.220;2023-08-20T11:09:24;100568.16;;;29.65;100.00
74905;BME280;63465;50.862;6.220;2023-08-20T11:11:50;100565.50;;;29.80;100.00
74905;BME280;63465;50.862;6.220;2023-08-20T11:14:18;100567.03;;;28.54;100.00
74905;BME280;63465;50.862;6.220;2023-08-20T11:16:44;100570.72;;;27.95;100.00
74905;BME280;63465;50.862;6.220;2023-08-20T11:19:09;100581.28;;;27.13;100.00
74905;BME280;63465;50.862;6.220;2023-08-20T11:21:39;100570.34;;;27.82;100.00
74905;BME280;63465;50.862;6.220;2023-08-20T11:24:08;100568.72;;;27.20;100.00
74905;BME280;63465;50.862;6.220;2023-08-20T11:26:41;100578.53;;;27.04;100.00
74905;BME280;63465;50.862;6.220;2023-08-20T11:29:08;100561.59;;;28.37;100.00
74905;BME280;63465;50.862;6.220;2023-08-20T11:31:35;100560.16;;;29.95;92.64
74905;BME280;63465;50.862;6.220;2023-08-20T11:34:02;100560.31;;;29.22;98.18
74905;BME280;63465;50.862;6.220;2023-08-20T11:36:28;100554.69;;;29.95;89.57
74905;BME280;63465;50.862;6.220;2023-08-20T11:38:53;100558.91;;;30.67;87.34
74905;BME280;63465;50.862;6.220;2023-08-20T11:41:23;100559.97;;;29.65;94.08
74905;BME280;63465;50.862;6.220;2023-08-20T11:43:49;100558.03;;;29.34;90.27
74905;BME280;63465;50.862;6.220;2023-08-20T11:46:16;100552.50;;;30.13;88.56
74905;BME280;63465;50.862;6.220;2023-08-20T11:49:03;100548.91;;;30.13;93.62
74905;BME280;63465;50.862;6.220;2023-08-20T11:51:30;100547.22;;;30.88;90.90
74905;BME280;63465;50.862;6.220;2023-08-20T11:53:57;100546.28;;;29.17;100.00
74905;BME280;63465;50.862;6.220;2023-08-20T11:56:22;100541.31;;;28.32;100.00
74905;BME280;63465;50.862;6.220;2023-08-20T11:58:51;100539.25;;;28.50;100.00
74905;BME280;63465;50.862;6.220;2023-08-20T12:01:18;100540.25;;;28.74;100.00
74905;BME280;63465;50.862;6.220;2023-08-20T12:03:44;100536.72;;;29.92;96.34
74905;BME280;63465;50.862;6.220;2023-08-20T12:06:20;100529.13;;;29.40;93.56
74905;BME280;63465;50.862;6.220;2023-08-20T12:08:46;100533.03;;;30.08;82.70
74905;BME280;63465;50.862;6.220;2023-08-20T12:11:12;100530.72;;;29.97;86.97
74905;BME280;63465;50.862;6.220;2023-08-20T12:13:38;100532.78;;;29.95;89.41
74905;BME280;63465;50.862;6.220;2023-08-20T12:16:03;100522.69;;;28.52;100.00
74905;BME280;63465;50.862;6.220;2023-08-20T12:18:28;100528.13;;;28.43;100.00
74905;BME280;63465;50.862;6.220;2023-08-20T12:20:55;100531.03;;;28.25;100.00
74905;BME280;63465;50.862;6.220;2023-08-20T12:23:21;100534.47;;;28.60;98.33
74905;BME280;63465;50.862;6.220;2023-08-20T12:25:50;100520.97;;;28.01;100.00
74905;BME280;63465;50.862;6.220;2023-08-20T12:28:16;100529.78;;;27.87;100.00
74905;BME280;63465;50.862;6.220;2023-08-20T12:30:41;100517.25;;;27.51;100.00
74905;BME280;63465;50.862;6.220;2023-08-20T12:33:07;100517.31;;;27.68;100.00
74905;BME280;63465;50.862;6.220;2023-08-20T12:35:32;100522.75;;;27.17;100.00
74905;BME280;63465;50.862;6.220;2023-08-20T12:37:57;100520.88;;;27.60;100.00
74905;BME280;63465;50.862;6.220;2023-08-20T12:40:23;100511.25;;;28.56;100.00
74905;BME280;63465;50.862;6.220;2023-08-20T12:42:48;100523.47;;;27.78;100.00
74905;BME280;63465;50.862;6.220;2023-08-20T12:45:13;100518.44;;;29.30;95.82
74905;BME280;63465;50.862;6.220;2023-08-20T12:47:39;100514.63;;;28.83;97.16
74905;BME280;63465;50.862;6.220;2023-08-20T12:50:05;100506.28;;;29.32;90.89
74905;BME280;63465;50.862;6.220;2023-08-20T12:52:31;100514.75;;;28.90;92.95